Zakirovskiy Airport

Jump to: basic info | weather | comments

Related pages: nearby airports | nearby navaids

Basic information (top)

Location: lon 43.448002, lat 77.049599, elev 2,038 ft / 621 m msl
Status: small_airport

Weather (top)

Current conditions for Almaty Airport 6nm (11km) S (rec'd 2014/09/02 01:30Z):

UAAA 020130Z VRB01MPS 9999 FEW100 19/04 Q1010 R88/65D NOSIG

Airport forecast for Almaty Airport 6nm (11km) S (rec'd 2014/09/01 00:18Z):

TAF TAF UAAA 012300Z 0200/0224 04006MPS 9999 SCT050 BKN100 TX32/0209Z TN16/0200Z PROB40 
      TEMPO 0208/0214 TS 
      TEMPO 0214/0218 23005MPS 3000 FU 
      TEMPO 0218/0224 VRB13MPS TSRA SQ BKN050CB BKN100

Latest comments (top)

No comments yet for Zakirovskiy Airport

More... (top)

See also NOTAMs and nearby airports and navaids, or visit the Zakirovskiy Airport page at the main OurAirports website..